TOCAL weather

Campo di Volo Carolina
Caluso (TO), Piedmont, Italy

Public forecast

Using degrees Celsius for public forecast. Weather courtesy of forecast.io.

Closest aviation weather report (METAR) to Campo di Volo Carolina

Closest report is Turin Airport, 11.0 nm (20.4 km) WSW. Retrieved 2020/08/07 17:50 UTC (14 minutes ago):

LIMF 071750Z 06006KT CAVOK 29/18 Q1018

Closest aviation forecast (TAF) to Campo di Volo Carolina

Closest forecast is Turin Airport, 11.0 nm (20.4 km) WSW. Retrieved 2020/08/07 18:00 UTC (4 minutes ago):

TAF LIMF 071700Z 0718/0818 VRB05KT CAVOK